createdAt,value
2023-04-29T00:05:01.365Z,65893.38
2023-04-29T00:10:08.254Z,65803.94
2023-04-29T00:15:12.741Z,65862.72
2023-04-29T00:20:17.771Z,65918.97
2023-04-29T00:25:23.205Z,65939.28
2023-04-29T00:30:27.304Z,65926.88
2023-04-29T00:35:31.427Z,65903.81
2023-04-29T00:40:37.417Z,65725.19
2023-04-29T00:45:41.236Z,65774.00
2023-04-29T00:50:45.176Z,65825.84
2023-04-29T00:55:53.012Z,65939.19
2023-04-29T01:00:57.349Z,65962.47
2023-04-29T01:06:14.094Z,65923.34
2023-04-29T01:11:24.768Z,65960.69
2023-04-29T01:16:36.067Z,65996.53
2023-04-29T01:21:48.783Z,66007.25
2023-04-29T01:27:00.918Z,66040.25
2023-04-29T01:32:27.607Z,65999.56
2023-04-29T01:37:41.398Z,66020.00
2023-04-29T01:42:49.789Z,66017.84
2023-04-29T01:47:57.192Z,66029.19
2023-04-29T01:53:02.682Z,66021.63
2023-04-29T01:58:08.565Z,66022.75
2023-04-29T02:03:31.774Z,65947.22
2023-04-29T02:08:37.786Z,66015.19
2023-04-29T02:13:43.559Z,66026.41
2023-04-29T02:18:49.349Z,66001.88
2023-04-29T02:23:54.538Z,66003.84
2023-04-29T02:29:03.892Z,65922.63
2023-04-29T02:34:07.909Z,65965.31
2023-04-29T02:39:11.998Z,65990.13
2023-04-29T02:44:17.952Z,65931.25
2023-04-29T02:49:21.870Z,65946.16
2023-04-29T02:54:27.521Z,65901.75
2023-04-29T02:59:33.086Z,65900.31
2023-04-29T03:04:40.686Z,65837.59
2023-04-29T03:09:45.996Z,65886.25
2023-04-29T03:14:51.951Z,65858.97
2023-04-29T03:19:56.054Z,65960.69
2023-04-29T03:25:00.128Z,65891.69
2023-04-29T03:30:07.471Z,65824.25
2023-04-29T03:35:15.526Z,65835.88
2023-04-29T03:40:42.542Z,65961.22
2023-04-29T03:45:48.298Z,65954.63
2023-04-29T03:50:55.884Z,65897.38
2023-04-29T03:56:00.476Z,65883.22
2023-04-29T04:01:06.108Z,65886.69
2023-04-29T04:06:17.292Z,65852.47
2023-04-29T04:11:22.005Z,65816.75
2023-04-29T04:16:33.813Z,65860.66
2023-04-29T04:21:39.104Z,65846.25
2023-04-29T04:26:45.813Z,65922.06
2023-04-29T04:31:59.826Z,65951.94
2023-04-29T04:37:04.128Z,65944.63
2023-04-29T04:42:09.521Z,65964.53
2023-04-29T04:47:18.890Z,65951.59
2023-04-29T04:52:28.354Z,65970.22
2023-04-29T04:57:57.498Z,66023.22
2023-04-29T05:03:03.791Z,65982.09
2023-04-29T05:08:09.028Z,65887.31
2023-04-29T05:13:18.989Z,65890.97
2023-04-29T05:18:25.681Z,65968.72
2023-04-29T05:23:30.290Z,66117.47
2023-04-29T05:28:34.408Z,66285.97
2023-04-29T05:33:43.158Z,66409.84
2023-04-29T05:38:47.531Z,66322.72
2023-04-29T05:43:51.682Z,66290.25
2023-04-29T05:48:57.247Z,66342.75
2023-04-29T05:54:02.904Z,66407.00
2023-04-29T05:59:08.516Z,66314.31
2023-04-29T06:04:14.304Z,66268.00
2023-04-29T06:09:37.467Z,66263.47
2023-04-29T06:14:41.650Z,66398.03
2023-04-29T06:19:47.738Z,66417.91
2023-04-29T06:24:52.736Z,66395.97
2023-04-29T06:30:24.554Z,66429.09
2023-04-29T06:35:30.377Z,66511.28
2023-04-29T06:40:51.213Z,66535.44
2023-04-29T06:46:21.777Z,66614.41
2023-04-29T06:51:37.073Z,66576.84
2023-04-29T06:56:41.055Z,66459.25
2023-04-29T07:01:47.070Z,66424.28
2023-04-29T07:06:54.269Z,66612.88
2023-04-29T07:11:58.454Z,66683.00
2023-04-29T07:17:02.503Z,66710.25
2023-04-29T07:22:09.180Z,66766.34
2023-04-29T07:27:13.316Z,66833.06
2023-04-29T07:32:17.328Z,66693.56
2023-04-29T07:37:22.577Z,66787.28
2023-04-29T07:42:27.439Z,66885.22
2023-04-29T07:47:31.477Z,66910.09
2023-04-29T07:52:37.323Z,66875.53
2023-04-29T07:57:41.357Z,66960.81
2023-04-29T08:02:45.670Z,66916.53
2023-04-29T08:07:53.708Z,66951.44
2023-04-29T08:12:57.864Z,66906.84
2023-04-29T08:18:03.351Z,67065.50
2023-04-29T08:23:09.297Z,67155.53
2023-04-29T08:28:13.198Z,67043.78
2023-04-29T08:33:17.337Z,67254.75
2023-04-29T08:38:23.297Z,67273.09
2023-04-29T08:43:28.011Z,67108.97
2023-04-29T08:48:32.174Z,67216.31
2023-04-29T08:53:37.488Z,67102.56
2023-04-29T08:58:43.376Z,67143.19
2023-04-29T09:03:55.527Z,67041.16
2023-04-29T09:09:04.490Z,66992.63
2023-04-29T09:14:09.662Z,66820.66
2023-04-29T09:19:32.164Z,66864.28
2023-04-29T09:24:38.137Z,66877.22
2023-04-29T09:30:02.493Z,66878.22
2023-04-29T09:35:24.981Z,67063.66
2023-04-29T09:40:31.982Z,67218.13
2023-04-29T09:45:37.028Z,67124.09
2023-04-29T09:50:43.747Z,67174.91
2023-04-29T09:56:02.730Z,67187.78
2023-04-29T10:01:08.641Z,67083.69
2023-04-29T10:06:14.065Z,67139.22
2023-04-29T10:11:19.728Z,67174.28
2023-04-29T10:16:30.770Z,67267.84
2023-04-29T10:21:35.512Z,67297.47
2023-04-29T10:26:43.200Z,67366.72
2023-04-29T10:31:50.178Z,67175.91
2023-04-29T10:36:54.735Z,67347.66
2023-04-29T10:42:03.425Z,67266.69
2023-04-29T10:47:23.035Z,67333.09
2023-04-29T10:52:28.953Z,67402.31
2023-04-29T10:57:34.400Z,67249.94
2023-04-29T11:02:38.810Z,67334.22
2023-04-29T11:07:44.543Z,67474.13
2023-04-29T11:12:50.342Z,67258.00
2023-04-29T11:17:54.509Z,67302.28
2023-04-29T11:22:58.907Z,67320.09
2023-04-29T11:28:05.390Z,67390.91
2023-04-29T11:33:10.533Z,67421.28
2023-04-29T11:38:14.875Z,67474.25
2023-04-29T11:43:21.059Z,67482.84
2023-04-29T11:48:27.091Z,67481.34
2023-04-29T11:53:31.658Z,67549.44
2023-04-29T11:58:37.414Z,67492.56
2023-04-29T12:03:41.827Z,67356.44
2023-04-29T12:08:48.311Z,67501.25
2023-04-29T12:13:54.088Z,67390.34
2023-04-29T12:18:59.016Z,67409.88
2023-04-29T12:24:04.730Z,67447.63
2023-04-29T12:29:11.866Z,67497.91
2023-04-29T12:34:16.521Z,67501.16
2023-04-29T12:39:21.344Z,67286.69
2023-04-29T12:44:27.242Z,67493.16
2023-04-29T12:49:38.368Z,67435.25
2023-04-29T12:54:43.942Z,67304.44
2023-04-29T12:59:49.931Z,67385.56
2023-04-29T13:04:54.647Z,67308.88
2023-04-29T13:09:58.884Z,67361.25
2023-04-29T13:15:04.720Z,67467.69
2023-04-29T13:20:11.229Z,67482.25
2023-04-29T13:25:16.412Z,67437.41
2023-04-29T13:30:21.801Z,67538.63
2023-04-29T13:35:25.966Z,67407.19
2023-04-29T13:40:30.845Z,67359.09
2023-04-29T13:45:39.888Z,67457.47
2023-04-29T14:01:37.740Z,67510.50
2023-04-29T14:06:31.024Z,67413.06
2023-04-29T14:11:37.024Z,67385.50
2023-04-29T14:16:46.004Z,67254.28
2023-04-29T14:21:54.983Z,67249.41
2023-04-29T14:26:59.263Z,67245.63
2023-04-29T14:32:05.048Z,67224.56
2023-04-29T14:37:09.098Z,67245.09
2023-04-29T14:42:15.132Z,67244.56
2023-04-29T14:47:20.421Z,67360.72
2023-04-29T14:52:24.463Z,67363.28
2023-04-29T14:57:32.339Z,67391.88
2023-04-29T15:02:37.701Z,67445.53
2023-04-29T15:07:41.729Z,67511.56
2023-04-29T15:12:45.671Z,67493.69
2023-04-29T15:17:51.342Z,67506.78
2023-04-29T15:22:55.884Z,67367.72
2023-04-29T15:28:00.770Z,67220.84
2023-04-29T15:33:06.395Z,67186.22
2023-04-29T15:38:10.689Z,67121.47
2023-04-29T15:43:15.223Z,67173.28
2023-04-29T15:48:20.914Z,67221.84
2023-04-29T15:53:26.523Z,67244.09
2023-04-29T15:58:30.625Z,67186.22
2023-04-29T16:03:36.331Z,67107.41
2023-04-29T16:08:40.597Z,67181.91
2023-04-29T16:13:44.684Z,67112.34
2023-04-29T16:18:50.331Z,67089.00
2023-04-29T16:23:54.236Z,67064.28
2023-04-29T16:28:58.579Z,67062.59
2023-04-29T16:34:04.019Z,67009.25
2023-04-29T16:39:08.800Z,67022.81
2023-04-29T16:44:12.918Z,66923.53
2023-04-29T16:49:25.600Z,66897.69
2023-04-29T16:54:29.809Z,66858.28
2023-04-29T16:59:34.013Z,66848.75
2023-04-29T17:04:39.560Z,66838.34
2023-04-29T17:09:44.476Z,66877.13
2023-04-29T17:14:49.768Z,66887.31
2023-04-29T17:19:55.613Z,66881.47
2023-04-29T17:25:00.166Z,66806.66
2023-04-29T17:30:06.256Z,66814.34
2023-04-29T17:35:12.233Z,66938.56
2023-04-29T17:40:16.457Z,66934.28
2023-04-29T17:45:20.569Z,66889.63
2023-04-29T17:50:26.437Z,66941.97
2023-04-29T17:55:31.054Z,66992.41
2023-04-29T18:00:35.768Z,66955.22
2023-04-29T18:05:41.165Z,66979.00
2023-04-29T18:10:46.682Z,67004.31
2023-04-29T18:15:51.448Z,67003.31
2023-04-29T18:20:57.200Z,66989.84
2023-04-29T18:26:01.555Z,66943.88
2023-04-29T18:31:06.171Z,66920.84
2023-04-29T18:36:14.885Z,66835.13
2023-04-29T18:41:19.087Z,66876.66
2023-04-29T18:46:23.494Z,66860.53
2023-04-29T18:51:29.331Z,66884.63
2023-04-29T18:56:33.493Z,66863.16
2023-04-29T19:01:38.119Z,66871.75
2023-04-29T19:06:43.717Z,66915.88
2023-04-29T19:11:47.998Z,66890.06
2023-04-29T19:16:52.125Z,66897.13
2023-04-29T19:21:57.948Z,66954.41
2023-04-29T19:27:02.055Z,66971.50
2023-04-29T19:32:20.479Z,66959.75
2023-04-29T19:37:26.235Z,66944.09
2023-04-29T19:42:30.726Z,66959.53
2023-04-29T19:47:34.922Z,66966.13
2023-04-29T19:52:40.666Z,66903.53
2023-04-29T19:57:44.426Z,66856.19
2023-04-29T20:02:50.896Z,66843.22
2023-04-29T20:07:56.394Z,66767.28
2023-04-29T20:13:01.126Z,66762.97
2023-04-29T20:18:05.527Z,66786.19
2023-04-29T20:23:10.896Z,66855.00
2023-04-29T20:28:14.922Z,66757.13
2023-04-29T20:33:20.027Z,66786.13
2023-04-29T20:38:25.913Z,66835.19
2023-04-29T20:43:31.547Z,66836.22
2023-04-29T20:48:35.471Z,66765.13
2023-04-29T20:53:40.961Z,66773.28
2023-04-29T20:58:44.895Z,66764.22
2023-04-29T21:03:49.128Z,66767.13
2023-04-29T21:08:54.399Z,66802.81
2023-04-29T21:13:58.646Z,66820.13
2023-04-29T21:19:02.954Z,66739.31
2023-04-29T21:24:08.440Z,66697.94
2023-04-29T21:29:12.399Z,66744.66
2023-04-29T21:34:16.350Z,66688.88
2023-04-29T21:39:22.303Z,66800.66
2023-04-29T21:44:26.483Z,66750.66
2023-04-29T21:49:30.675Z,66835.75
2023-04-29T21:54:35.987Z,66871.75
2023-04-29T21:59:39.912Z,66724.75
2023-04-29T22:04:43.904Z,66765.06
2023-04-29T22:09:50.615Z,66744.06
2023-04-29T22:14:54.666Z,66826.50
2023-04-29T22:19:58.622Z,66775.28
2023-04-29T22:25:04.741Z,66643.00
2023-04-29T22:30:09.994Z,66712.38
2023-04-29T22:35:14.183Z,66717.63
2023-04-29T22:40:19.789Z,66773.81
2023-04-29T22:45:23.677Z,66797.88
2023-04-29T22:50:27.587Z,66787.19
2023-04-29T22:55:34.104Z,66749.00
2023-04-29T23:00:38.259Z,66767.91
2023-04-29T23:05:42.315Z,66796.97
2023-04-29T23:10:50.624Z,66640.38
2023-04-29T23:15:57.546Z,66692.66
2023-04-29T23:21:01.698Z,66694.72
2023-04-29T23:26:07.131Z,66747.81
2023-04-29T23:31:11.080Z,66745.69
2023-04-29T23:36:15.045Z,66746.38
2023-04-29T23:41:20.895Z,66723.69
2023-04-29T23:46:25.532Z,66677.47
2023-04-29T23:51:29.592Z,66687.63
2023-04-29T23:56:34.880Z,66691.03
